createdAt,value
2022-10-10T00:01:39.512Z,101261.03
2022-10-10T00:06:43.432Z,101265.47
2022-10-10T00:11:45.960Z,101266.34
2022-10-10T00:16:48.476Z,101263.91
2022-10-10T00:21:52.360Z,101263.78
2022-10-10T00:26:56.588Z,101255.16
2022-10-10T00:31:59.164Z,101261.34
2022-10-10T00:37:03.472Z,101259.44
2022-10-10T00:42:06.400Z,101232.84
2022-10-10T00:47:09.552Z,101248.56
2022-10-10T00:52:13.484Z,101244.97
2022-10-10T00:57:16.262Z,101246.66
2022-10-10T01:02:18.791Z,101237.56
2022-10-10T01:07:25.361Z,101235.97
2022-10-10T01:12:33.921Z,101239.47
2022-10-10T01:17:43.997Z,101223.31
2022-10-10T01:23:04.809Z,101217.78
2022-10-10T01:28:14.252Z,101219.09
2022-10-10T01:33:24.935Z,101214.09
2022-10-10T01:38:37.121Z,101165.03
2022-10-10T01:43:39.674Z,101195.38
2022-10-10T01:48:46.859Z,101203.88
2022-10-10T01:54:02.872Z,101199.59
2022-10-10T01:59:18.179Z,101193.25
2022-10-10T02:04:35.296Z,101195.16
2022-10-10T02:09:40.687Z,101179.56
2022-10-10T02:14:46.915Z,101174.47
2022-10-10T02:19:54.128Z,101175.06
2022-10-10T02:24:57.169Z,101176.97
2022-10-10T02:30:02.365Z,101167.63
2022-10-10T02:35:10.020Z,101164.31
2022-10-10T02:40:17.787Z,101160.19
2022-10-10T02:45:21.806Z,101147.44
2022-10-10T02:50:26.434Z,101145.75
2022-10-10T02:55:28.993Z,101144.72
2022-10-10T03:00:31.512Z,101146.91
2022-10-10T03:05:35.450Z,101139.06
2022-10-10T03:10:38.449Z,101136.41
2022-10-10T03:15:40.961Z,101128.44
2022-10-10T03:20:45.651Z,101119.84
2022-10-10T03:25:48.692Z,101121.38
2022-10-10T03:30:51.219Z,101124.00
2022-10-10T03:35:55.091Z,101117.31
2022-10-10T03:40:57.605Z,101125.47
2022-10-10T03:46:00.146Z,101113.91
2022-10-10T03:51:04.356Z,101097.09
2022-10-10T03:56:07.626Z,101117.91
2022-10-10T04:01:10.175Z,101120.66
2022-10-10T04:06:36.008Z,101120.47
2022-10-10T04:11:38.823Z,101124.03
2022-10-10T04:16:41.348Z,101120.84
2022-10-10T04:21:45.486Z,101094.88
2022-10-10T04:26:48.016Z,101115.75
2022-10-10T04:31:50.598Z,101116.50
2022-10-10T04:36:54.464Z,101115.56
2022-10-10T04:41:57.090Z,101106.66
2022-10-10T04:46:59.717Z,101115.56
2022-10-10T04:52:03.601Z,101114.44
2022-10-10T04:57:08.244Z,101101.78
2022-10-10T05:02:11.331Z,101108.69
2022-10-10T05:07:15.241Z,101103.38
2022-10-10T05:12:17.838Z,101087.78
2022-10-10T05:17:20.688Z,101107.81
2022-10-10T05:22:25.089Z,101106.41
2022-10-10T05:27:27.863Z,101108.03
2022-10-10T05:32:33.839Z,101100.28
2022-10-10T05:37:38.547Z,101101.78
2022-10-10T05:42:41.084Z,101098.72
2022-10-10T05:47:43.711Z,101107.91
2022-10-10T05:52:48.089Z,101108.59
2022-10-10T05:57:50.946Z,101117.47
2022-10-10T06:02:54.012Z,101120.03
2022-10-10T06:08:10.752Z,101112.19
2022-10-10T06:13:21.631Z,101121.56
2022-10-10T06:18:27.008Z,101122.44
2022-10-10T06:23:30.977Z,101119.88
2022-10-10T06:28:35.211Z,101123.84
2022-10-10T06:33:38.068Z,101130.13
2022-10-10T06:38:43.987Z,101125.78
2022-10-10T06:43:46.500Z,101128.88
2022-10-10T06:48:49.300Z,101132.84
2022-10-10T06:53:53.191Z,101134.91
2022-10-10T06:58:56.340Z,101125.16
2022-10-10T07:03:59.279Z,101133.66
2022-10-10T07:09:03.322Z,101137.22
2022-10-10T07:14:05.940Z,101139.84
2022-10-10T07:19:08.629Z,101139.56
2022-10-10T07:24:12.704Z,101141.69
2022-10-10T07:29:15.555Z,101139.81
2022-10-10T07:34:18.134Z,101138.56
2022-10-10T07:39:23.266Z,101139.31
2022-10-10T07:44:26.079Z,101142.59
2022-10-10T07:49:28.837Z,101165.53
2022-10-10T07:54:33.827Z,101113.69
2022-10-10T07:59:36.544Z,101156.34
2022-10-10T08:04:40.287Z,101157.44
2022-10-10T08:09:44.151Z,101164.34
2022-10-10T08:14:46.771Z,101166.59
2022-10-10T08:19:49.308Z,101164.91
2022-10-10T08:24:53.615Z,101175.31
2022-10-10T08:29:56.179Z,101170.88
2022-10-10T08:34:58.734Z,101165.13
2022-10-10T08:40:02.887Z,101180.31
2022-10-10T08:45:12.150Z,101172.41
2022-10-10T08:50:19.433Z,101183.97
2022-10-10T08:55:30.777Z,101192.09
2022-10-10T09:00:41.097Z,101192.19
2022-10-10T09:05:56.848Z,101199.97
2022-10-10T09:11:10.995Z,101194.84
2022-10-10T09:16:22.246Z,101199.22
2022-10-10T09:21:28.993Z,101201.50
2022-10-10T09:26:40.664Z,101196.78
2022-10-10T09:31:49.337Z,101196.06
2022-10-10T09:36:54.221Z,101191.50
2022-10-10T09:42:03.660Z,101191.78
2022-10-10T09:47:06.242Z,101203.22
2022-10-10T09:52:24.725Z,101194.88
2022-10-10T09:57:33.637Z,101202.63
2022-10-10T10:02:36.177Z,101182.13
2022-10-10T10:07:48.793Z,101172.22
2022-10-10T10:12:53.232Z,101211.47
2022-10-10T10:18:12.399Z,101207.91
2022-10-10T10:23:26.540Z,101209.03
2022-10-10T10:28:31.215Z,101207.56
2022-10-10T10:33:44.936Z,101199.56
2022-10-10T10:38:52.981Z,101205.63
2022-10-10T10:44:15.737Z,101214.19
2022-10-10T10:49:25.631Z,101207.88
2022-10-10T10:54:49.200Z,101212.97
2022-10-10T11:00:26.472Z,101217.81
2022-10-10T11:05:41.305Z,101212.53
2022-10-10T11:10:52.587Z,101214.16
2022-10-10T11:16:07.510Z,101211.56
2022-10-10T11:21:18.211Z,101211.88
2022-10-10T11:26:24.903Z,101210.50
2022-10-10T11:31:34.800Z,101214.44
2022-10-10T11:36:44.059Z,101218.41
2022-10-10T11:41:52.045Z,101212.75
2022-10-10T11:47:02.921Z,101216.56
2022-10-10T11:52:35.421Z,101221.69
2022-10-10T11:57:42.519Z,101224.94
2022-10-10T12:02:48.357Z,101208.22
2022-10-10T12:08:05.797Z,101222.25
2022-10-10T12:13:23.430Z,101222.84
2022-10-10T12:18:31.962Z,101226.78
2022-10-10T12:23:35.023Z,101220.78
2022-10-10T12:28:58.569Z,101193.38
2022-10-10T12:34:15.564Z,101220.34
2022-10-10T12:39:37.816Z,101206.34
2022-10-10T12:44:45.510Z,101212.72
2022-10-10T12:49:52.244Z,101211.59
2022-10-10T12:55:06.550Z,101215.03
2022-10-10T13:00:17.919Z,101216.97
2022-10-10T13:05:27.292Z,101220.47
2022-10-10T13:10:31.302Z,101230.81
2022-10-10T13:15:36.483Z,101240.69
2022-10-10T13:20:41.660Z,101241.53
2022-10-10T13:25:47.235Z,101247.03
2022-10-10T13:30:51.324Z,101219.81
2022-10-10T13:36:06.328Z,101227.41
2022-10-10T13:41:09.325Z,101245.47
2022-10-10T13:46:21.611Z,101247.28
2022-10-10T13:51:44.882Z,101265.16
2022-10-10T13:56:47.500Z,101260.56
2022-10-10T14:01:59.263Z,101270.31
2022-10-10T14:07:07.068Z,101282.72
2022-10-10T14:12:17.997Z,101275.69
2022-10-10T14:17:20.743Z,101293.44
2022-10-10T14:22:24.934Z,101291.34
2022-10-10T14:27:27.912Z,101281.81
2022-10-10T14:32:31.072Z,101326.13
2022-10-10T14:37:38.460Z,101330.59
2022-10-10T14:42:41.429Z,101339.53
2022-10-10T14:47:43.977Z,101342.63
2022-10-10T14:52:47.854Z,101333.38
2022-10-10T14:57:50.444Z,101328.06
2022-10-10T15:02:53.113Z,101354.66
2022-10-10T15:07:57.037Z,101369.88
2022-10-10T15:12:59.559Z,101380.25
2022-10-10T15:18:02.218Z,101389.97
2022-10-10T15:23:09.075Z,101394.72
2022-10-10T15:28:11.704Z,101401.56
2022-10-10T15:33:14.264Z,101414.47
2022-10-10T15:38:18.259Z,101424.56
2022-10-10T15:43:20.781Z,101433.78
2022-10-10T15:48:23.624Z,101444.66
2022-10-10T15:53:29.176Z,101454.50
2022-10-10T15:58:32.065Z,101472.63
2022-10-10T16:03:34.726Z,101478.69
2022-10-10T16:08:39.740Z,101474.34
2022-10-10T16:13:43.369Z,101478.56
2022-10-10T16:18:46.052Z,101494.22
2022-10-10T16:23:55.629Z,101502.00
2022-10-10T16:29:01.848Z,101491.47
2022-10-10T16:34:04.483Z,101523.53
2022-10-10T16:39:08.427Z,101526.31
2022-10-10T16:44:11.346Z,101557.72
2022-10-10T16:49:16.736Z,101574.06
2022-10-10T16:54:20.830Z,101586.13
2022-10-10T16:59:23.446Z,101594.69
2022-10-10T17:04:26.007Z,101611.44
2022-10-10T17:09:30.752Z,101624.03
2022-10-10T17:14:33.476Z,101635.56
2022-10-10T17:19:36.584Z,101648.94
2022-10-10T17:24:41.164Z,101648.66
2022-10-10T17:29:43.738Z,101674.13
2022-10-10T17:34:46.409Z,101688.94
2022-10-10T17:39:50.361Z,101698.41
2022-10-10T17:44:56.698Z,101702.88
2022-10-10T17:49:59.366Z,101726.19
2022-10-10T17:55:03.266Z,101728.41
2022-10-10T18:00:07.055Z,101742.13
2022-10-10T18:05:09.874Z,101752.03
2022-10-10T18:10:13.824Z,101765.28
2022-10-10T18:15:16.615Z,101723.81
2022-10-10T18:27:08.021Z,101780.75
2022-10-10T18:32:13.803Z,101793.59
2022-10-10T18:37:17.404Z,101802.72
2022-10-10T18:42:21.455Z,101816.16
2022-10-10T18:47:24.165Z,101816.81
2022-10-10T18:52:28.714Z,101832.41
2022-10-10T18:57:32.785Z,101829.66
2022-10-10T19:02:35.355Z,101841.53
2022-10-10T19:07:38.305Z,101833.03
2022-10-10T19:12:47.194Z,101849.31
2022-10-10T19:17:49.993Z,101839.41
2022-10-10T19:22:52.610Z,101859.84
2022-10-10T19:27:57.393Z,101862.19
2022-10-10T19:33:00.279Z,101872.06
2022-10-10T19:38:03.026Z,101880.88
2022-10-10T19:43:07.003Z,101885.50
2022-10-10T19:48:09.740Z,101903.34
2022-10-10T19:53:14.544Z,101862.66
2022-10-10T19:58:18.687Z,101904.63
2022-10-10T20:03:21.275Z,101912.84
2022-10-10T20:08:23.813Z,101906.97
2022-10-10T20:13:28.898Z,101939.50
2022-10-10T20:18:34.166Z,101946.25
2022-10-10T20:23:36.761Z,101816.34
2022-10-10T20:28:41.085Z,101948.13
2022-10-10T20:33:44.405Z,101964.69
2022-10-10T20:38:53.396Z,101968.09
2022-10-10T20:43:58.934Z,101975.88
2022-10-10T20:49:03.355Z,101972.88
2022-10-10T20:54:07.126Z,101980.16
2022-10-10T20:59:11.614Z,101998.91
2022-10-10T21:04:14.893Z,102003.94
2022-10-10T21:09:17.472Z,102005.25
2022-10-10T21:14:21.741Z,101998.72
2022-10-10T21:19:24.276Z,102021.66
2022-10-10T21:24:26.824Z,102030.88
2022-10-10T21:29:30.818Z,102036.19
2022-10-10T21:34:33.627Z,102035.25
2022-10-10T21:39:36.553Z,102036.44
2022-10-10T21:44:40.635Z,102039.16
2022-10-10T21:49:43.466Z,102042.19
2022-10-10T21:54:46.040Z,102044.47
2022-10-10T21:59:50.178Z,102050.59
2022-10-10T22:04:54.872Z,102057.44
2022-10-10T22:09:57.786Z,102059.44
2022-10-10T22:15:01.711Z,102034.06
2022-10-10T22:20:04.615Z,102073.03
2022-10-10T22:25:09.549Z,102066.31
2022-10-10T22:30:14.908Z,102077.28
2022-10-10T22:35:17.463Z,102074.78
2022-10-10T22:40:22.096Z,102079.88
2022-10-10T22:45:27.366Z,102078.03
2022-10-10T22:50:31.094Z,102085.25
2022-10-10T22:55:34.952Z,102095.41
2022-10-10T23:00:41.229Z,102084.97
2022-10-10T23:05:44.329Z,102097.28
2022-10-10T23:10:47.946Z,102095.81
2022-10-10T23:15:53.351Z,102102.25
2022-10-10T23:20:56.173Z,102098.81
2022-10-10T23:25:58.738Z,102105.72
2022-10-10T23:31:05.260Z,102105.00
2022-10-10T23:36:10.628Z,102106.13
2022-10-10T23:41:13.751Z,102110.84
2022-10-10T23:46:17.632Z,102121.69
2022-10-10T23:51:20.350Z,102123.09
2022-10-10T23:56:23.045Z,102128.53
